sensor_id;sensor_type;location;lat;lon;timestamp;pressure;altitude;pressure_sealevel;temperature;humidity
71996;BME280;59862;47.732;7.346;2023-04-03T00:01:18;98613.61;;;3.83;88.94
71996;BME280;59862;47.732;7.346;2023-04-03T00:03:45;98613.43;;;3.90;89.20
71996;BME280;59862;47.732;7.346;2023-04-03T00:06:13;98615.75;;;3.83;89.31
71996;BME280;59862;47.732;7.346;2023-04-03T00:08:41;98609.77;;;3.76;89.37
71996;BME280;59862;47.732;7.346;2023-04-03T00:11:09;98614.63;;;3.65;89.46
71996;BME280;59862;47.732;7.346;2023-04-03T00:13:38;98613.20;;;3.61;89.55
71996;BME280;59862;47.732;7.346;2023-04-03T00:16:06;98620.03;;;3.64;89.62
71996;BME280;59862;47.732;7.346;2023-04-03T00:18:34;98623.30;;;3.62;89.63
71996;BME280;59862;47.732;7.346;2023-04-03T00:21:02;98629.72;;;3.54;89.20
71996;BME280;59862;47.732;7.346;2023-04-03T00:23:30;98624.83;;;3.33;88.30
71996;BME280;59862;47.732;7.346;2023-04-03T00:25:58;98619.65;;;3.26;88.27
71996;BME280;59862;47.732;7.346;2023-04-03T00:28:25;98622.80;;;3.20;88.17
71996;BME280;59862;47.732;7.346;2023-04-03T00:30:53;98618.58;;;3.17;88.59
71996;BME280;59862;47.732;7.346;2023-04-03T00:33:20;98619.66;;;3.15;88.48
71996;BME280;59862;47.732;7.346;2023-04-03T00:35:49;98619.55;;;3.11;88.32
71996;BME280;59862;47.732;7.346;2023-04-03T00:38:16;98617.27;;;3.12;88.42
71996;BME280;59862;47.732;7.346;2023-04-03T00:40:47;98627.73;;;3.07;88.26
71996;BME280;59862;47.732;7.346;2023-04-03T00:43:23;98627.01;;;3.05;87.93
71996;BME280;59862;47.732;7.346;2023-04-03T00:45:56;98623.30;;;3.02;87.58
71996;BME280;59862;47.732;7.346;2023-04-03T00:48:30;98618.12;;;3.01;87.24
71996;BME280;59862;47.732;7.346;2023-04-03T00:50:59;98618.83;;;3.08;87.37
71996;BME280;59862;47.732;7.346;2023-04-03T00:53:33;98614.84;;;3.08;86.57
71996;BME280;59862;47.732;7.346;2023-04-03T00:56:00;98611.46;;;3.12;86.20
71996;BME280;59862;47.732;7.346;2023-04-03T00:58:34;98607.00;;;3.13;85.69
71996;BME280;59862;47.732;7.346;2023-04-03T01:01:05;98605.33;;;3.06;84.76
71996;BME280;59862;47.732;7.346;2023-04-03T01:03:32;98609.80;;;3.00;84.29
71996;BME280;59862;47.732;7.346;2023-04-03T01:06:00;98608.95;;;2.99;84.29
71996;BME280;59862;47.732;7.346;2023-04-03T01:08:28;98616.06;;;2.93;83.58
71996;BME280;59862;47.732;7.346;2023-04-03T01:10:56;98620.76;;;2.95;83.73
71996;BME280;59862;47.732;7.346;2023-04-03T01:13:31;98617.16;;;2.96;83.81
71996;BME280;59862;47.732;7.346;2023-04-03T01:16:03;98617.62;;;3.01;84.29
71996;BME280;59862;47.732;7.346;2023-04-03T01:18:33;98615.11;;;2.94;83.40
71996;BME280;59862;47.732;7.346;2023-04-03T01:24:05;98612.83;;;3.01;83.36
71996;BME280;59862;47.732;7.346;2023-04-03T01:26:32;98614.13;;;2.95;82.96
71996;BME280;59862;47.732;7.346;2023-04-03T01:29:03;98616.66;;;2.97;83.25
71996;BME280;59862;47.732;7.346;2023-04-03T01:34:04;98610.76;;;3.04;83.24
71996;BME280;59862;47.732;7.346;2023-04-03T01:36:32;98617.27;;;3.12;83.29
71996;BME280;59862;47.732;7.346;2023-04-03T01:39:00;98610.27;;;3.11;82.58
71996;BME280;59862;47.732;7.346;2023-04-03T01:41:28;98609.05;;;3.15;82.38
71996;BME280;59862;47.732;7.346;2023-04-03T01:43:56;98610.48;;;3.19;82.56
71996;BME280;59862;47.732;7.346;2023-04-03T01:46:24;98608.69;;;3.19;82.25
71996;BME280;59862;47.732;7.346;2023-04-03T01:48:51;98622.42;;;3.07;81.29
71996;BME280;59862;47.732;7.346;2023-04-03T01:51:18;98624.60;;;3.08;81.60
71996;BME280;59862;47.732;7.346;2023-04-03T01:53:46;98620.53;;;3.10;81.48
71996;BME280;59862;47.732;7.346;2023-04-03T01:56:13;98619.20;;;3.10;81.19
71996;BME280;59862;47.732;7.346;2023-04-03T01:58:41;98615.33;;;3.08;81.10
71996;BME280;59862;47.732;7.346;2023-04-03T02:01:09;98597.64;;;3.03;80.88
71996;BME280;59862;47.732;7.346;2023-04-03T02:03:36;98602.92;;;2.97;80.37
71996;BME280;59862;47.732;7.346;2023-04-03T02:06:04;98609.32;;;3.00;81.05
71996;BME280;59862;47.732;7.346;2023-04-03T02:08:31;98597.15;;;2.98;80.32
71996;BME280;59862;47.732;7.346;2023-04-03T02:10:59;98611.97;;;3.00;80.20
71996;BME280;59862;47.732;7.346;2023-04-03T02:13:26;98614.36;;;3.03;79.89
71996;BME280;59862;47.732;7.346;2023-04-03T02:15:54;98608.11;;;3.04;80.09
71996;BME280;59862;47.732;7.346;2023-04-03T02:18:21;98613.64;;;3.01;80.09
71996;BME280;59862;47.732;7.346;2023-04-03T02:20:48;98621.50;;;3.03;79.94
71996;BME280;59862;47.732;7.346;2023-04-03T02:23:16;98618.47;;;3.02;79.76
71996;BME280;59862;47.732;7.346;2023-04-03T02:25:43;98621.23;;;2.95;78.67
71996;BME280;59862;47.732;7.346;2023-04-03T02:28:11;98622.21;;;2.94;78.77
71996;BME280;59862;47.732;7.346;2023-04-03T02:30:39;98623.18;;;2.98;79.03
71996;BME280;59862;47.732;7.346;2023-04-03T02:33:06;98623.54;;;2.94;78.35
71996;BME280;59862;47.732;7.346;2023-04-03T02:35:33;98614.97;;;2.90;78.43
71996;BME280;59862;47.732;7.346;2023-04-03T02:38:01;98621.50;;;2.92;78.71
71996;BME280;59862;47.732;7.346;2023-04-03T02:40:28;98614.36;;;2.92;78.78
71996;BME280;59862;47.732;7.346;2023-04-03T02:42:56;98621.25;;;2.89;78.27
71996;BME280;59862;47.732;7.346;2023-04-03T02:45:23;98625.83;;;2.87;78.31
71996;BME280;59862;47.732;7.346;2023-04-03T02:47:51;98618.83;;;2.86;78.67
71996;BME280;59862;47.732;7.346;2023-04-03T02:50:18;98622.20;;;2.88;78.30
71996;BME280;59862;47.732;7.346;2023-04-03T02:52:46;98620.03;;;2.82;78.27
71996;BME280;59862;47.732;7.346;2023-04-03T02:55:14;98618.48;;;2.85;78.24
71996;BME280;59862;47.732;7.346;2023-04-03T02:57:42;98626.55;;;2.89;78.31
71996;BME280;59862;47.732;7.346;2023-04-03T03:00:10;98632.92;;;2.87;78.44
71996;BME280;59862;47.732;7.346;2023-04-03T03:02:37;98620.53;;;2.87;78.35
71996;BME280;59862;47.732;7.346;2023-04-03T03:05:06;98625.71;;;2.83;78.36
71996;BME280;59862;47.732;7.346;2023-04-03T03:07:33;98628.36;;;2.83;77.91
71996;BME280;59862;47.732;7.346;2023-04-03T03:10:01;98635.22;;;2.91;78.73
71996;BME280;59862;47.732;7.346;2023-04-03T03:12:29;98630.75;;;2.86;78.33
71996;BME280;59862;47.732;7.346;2023-04-03T03:14:56;98636.05;;;2.86;78.14
71996;BME280;59862;47.732;7.346;2023-04-03T03:17:23;98631.23;;;2.80;77.77
71996;BME280;59862;47.732;7.346;2023-04-03T03:19:51;98631.11;;;2.82;77.97
71996;BME280;59862;47.732;7.346;2023-04-03T03:22:19;98634.48;;;2.84;78.01
71996;BME280;59862;47.732;7.346;2023-04-03T03:24:46;98630.87;;;2.90;78.05
71996;BME280;59862;47.732;7.346;2023-04-03T03:27:14;98627.25;;;2.97;78.40
71996;BME280;59862;47.732;7.346;2023-04-03T03:29:43;98635.92;;;2.99;78.31
71996;BME280;59862;47.732;7.346;2023-04-03T03:32:10;98638.59;;;2.93;78.06
71996;BME280;59862;47.732;7.346;2023-04-03T03:34:37;98634.27;;;2.81;77.76
71996;BME280;59862;47.732;7.346;2023-04-03T03:37:05;98630.15;;;2.88;78.15
71996;BME280;59862;47.732;7.346;2023-04-03T03:39:32;98632.45;;;2.87;77.83
71996;BME280;59862;47.732;7.346;2023-04-03T03:42:00;98625.11;;;2.85;77.79
71996;BME280;59862;47.732;7.346;2023-04-03T03:44:27;98633.40;;;2.86;77.74
71996;BME280;59862;47.732;7.346;2023-04-03T03:46:56;98634.48;;;2.84;77.94
71996;BME280;59862;47.732;7.346;2023-04-03T03:49:24;98637.27;;;2.93;78.35
71996;BME280;59862;47.732;7.346;2023-04-03T03:51:51;98635.34;;;2.95;78.26
71996;BME280;59862;47.732;7.346;2023-04-03T03:54:19;98634.50;;;3.00;78.61
71996;BME280;59862;47.732;7.346;2023-04-03T03:56:46;98632.80;;;2.99;78.05
71996;BME280;59862;47.732;7.346;2023-04-03T03:59:13;98636.41;;;3.04;78.02
71996;BME280;59862;47.732;7.346;2023-04-03T04:01:41;98638.48;;;3.00;77.45
71996;BME280;59862;47.732;7.346;2023-04-03T04:04:09;98644.63;;;3.01;77.35
71996;BME280;59862;47.732;7.346;2023-04-03T04:06:36;98645.23;;;2.88;77.10
71996;BME280;59862;47.732;7.346;2023-04-03T04:09:04;98651.25;;;2.90;77.43
71996;BME280;59862;47.732;7.346;2023-04-03T04:11:31;98652.45;;;2.91;77.62
71996;BME280;59862;47.732;7.346;2023-04-03T04:13:59;98646.06;;;2.94;77.35
71996;BME280;59862;47.732;7.346;2023-04-03T04:16:27;98641.83;;;2.97;77.54
71996;BME280;59862;47.732;7.346;2023-04-03T04:18:54;98647.85;;;2.99;77.68
71996;BME280;59862;47.732;7.346;2023-04-03T04:21:21;98642.70;;;2.92;76.72
71996;BME280;59862;47.732;7.346;2023-04-03T04:23:49;98648.35;;;2.87;77.19
71996;BME280;59862;47.732;7.346;2023-04-03T04:26:16;98646.53;;;2.82;76.94
71996;BME280;59862;47.732;7.346;2023-04-03T04:28:44;98646.17;;;2.70;76.96
71996;BME280;59862;47.732;7.346;2023-04-03T04:31:11;98643.75;;;2.67;77.53
71996;BME280;59862;47.732;7.346;2023-04-03T04:33:38;98647.22;;;2.62;78.57
71996;BME280;59862;47.732;7.346;2023-04-03T04:36:06;98649.63;;;2.54;79.25
71996;BME280;59862;47.732;7.346;2023-04-03T04:38:34;98651.55;;;2.47;79.70
71996;BME280;59862;47.732;7.346;2023-04-03T04:41:02;98653.23;;;2.42;80.51
71996;BME280;59862;47.732;7.346;2023-04-03T04:43:29;98656.31;;;2.36;80.70
71996;BME280;59862;47.732;7.346;2023-04-03T04:46:04;98656.31;;;2.36;81.18
71996;BME280;59862;47.732;7.346;2023-04-03T04:48:33;98651.62;;;2.34;81.55
71996;BME280;59862;47.732;7.346;2023-04-03T04:51:01;98653.45;;;2.34;81.31
71996;BME280;59862;47.732;7.346;2023-04-03T04:53:28;98651.14;;;2.35;81.68
71996;BME280;59862;47.732;7.346;2023-04-03T04:55:56;98656.70;;;2.37;82.42
71996;BME280;59862;47.732;7.346;2023-04-03T04:58:23;98657.17;;;2.31;81.67
71996;BME280;59862;47.732;7.346;2023-04-03T05:01:05;98658.11;;;2.30;81.54
71996;BME280;59862;47.732;7.346;2023-04-03T05:03:32;98655.24;;;2.33;81.31
71996;BME280;59862;47.732;7.346;2023-04-03T05:06:00;98661.05;;;2.38;81.29
71996;BME280;59862;47.732;7.346;2023-04-03T05:08:28;98661.52;;;2.43;81.14
71996;BME280;59862;47.732;7.346;2023-04-03T05:10:55;98665.48;;;2.43;80.58
71996;BME280;59862;47.732;7.346;2023-04-03T05:13:23;98671.77;;;2.48;80.64
71996;BME280;59862;47.732;7.346;2023-04-03T05:15:50;98664.89;;;2.45;80.24
71996;BME280;59862;47.732;7.346;2023-04-03T05:18:18;98662.52;;;2.53;80.11
71996;BME280;59862;47.732;7.346;2023-04-03T05:20:47;98672.52;;;2.61;80.30
71996;BME280;59862;47.732;7.346;2023-04-03T05:23:14;98673.72;;;2.62;79.80
71996;BME280;59862;47.732;7.346;2023-04-03T05:25:42;98669.39;;;2.61;79.69
71996;BME280;59862;47.732;7.346;2023-04-03T05:28:12;98673.02;;;2.66;80.25
71996;BME280;59862;47.732;7.346;2023-04-03T05:30:39;98668.07;;;2.61;80.39
71996;BME280;59862;47.732;7.346;2023-04-03T05:33:07;98672.30;;;2.64;80.57
71996;BME280;59862;47.732;7.346;2023-04-03T05:35:36;98672.52;;;2.61;80.42
71996;BME280;59862;47.732;7.346;2023-04-03T05:38:06;98671.07;;;2.51;80.76
71996;BME280;59862;47.732;7.346;2023-04-03T05:40:33;98671.26;;;2.43;81.04
71996;BME280;59862;47.732;7.346;2023-04-03T05:43:00;98669.46;;;2.43;81.70
71996;BME280;59862;47.732;7.346;2023-04-03T05:45:28;98670.91;;;2.42;81.76
71996;BME280;59862;47.732;7.346;2023-04-03T05:47:55;98674.66;;;2.50;82.28
71996;BME280;59862;47.732;7.346;2023-04-03T05:50:23;98670.69;;;2.50;82.30
71996;BME280;59862;47.732;7.346;2023-04-03T05:52:52;98675.86;;;2.52;82.24
71996;BME280;59862;47.732;7.346;2023-04-03T05:55:20;98676.74;;;2.58;82.45
71996;BME280;59862;47.732;7.346;2023-04-03T05:57:48;98675.52;;;2.51;82.24
71996;BME280;59862;47.732;7.346;2023-04-03T06:00:16;98678.98;;;2.40;81.90
71996;BME280;59862;47.732;7.346;2023-04-03T06:02:44;98679.93;;;2.39;82.30
71996;BME280;59862;47.732;7.346;2023-04-03T06:05:11;98688.73;;;2.45;83.05
71996;BME280;59862;47.732;7.346;2023-04-03T06:07:39;98684.63;;;2.41;82.79
71996;BME280;59862;47.732;7.346;2023-04-03T06:10:08;98681.25;;;2.34;82.25
71996;BME280;59862;47.732;7.346;2023-04-03T06:12:35;98683.89;;;2.34;82.21
71996;BME280;59862;47.732;7.346;2023-04-03T06:15:04;98684.84;;;2.27;81.80
71996;BME280;59862;47.732;7.346;2023-04-03T06:17:31;98683.05;;;2.33;82.08
71996;BME280;59862;47.732;7.346;2023-04-03T06:19:59;98680.44;;;2.44;82.33
71996;BME280;59862;47.732;7.346;2023-04-03T06:22:26;98682.95;;;2.40;81.69
71996;BME280;59862;47.732;7.346;2023-04-03T06:24:56;98682.70;;;2.43;81.99
71996;BME280;59862;47.732;7.346;2023-04-03T06:27:23;98684.53;;;2.48;81.64
71996;BME280;59862;47.732;7.346;2023-04-03T06:29:51;98684.50;;;2.43;81.32
71996;BME280;59862;47.732;7.346;2023-04-03T06:32:18;98691.13;;;2.43;81.33
71996;BME280;59862;47.732;7.346;2023-04-03T06:34:46;98686.29;;;2.31;81.05
71996;BME280;59862;47.732;7.346;2023-04-03T06:37:19;98691.34;;;2.34;81.88
71996;BME280;59862;47.732;7.346;2023-04-03T06:39:47;98692.44;;;2.37;82.37
71996;BME280;59862;47.732;7.346;2023-04-03T06:42:15;98695.69;;;2.41;82.50
71996;BME280;59862;47.732;7.346;2023-04-03T06:44:43;98696.92;;;2.42;82.44
71996;BME280;59862;47.732;7.346;2023-04-03T06:47:15;98699.32;;;2.45;82.51
71996;BME280;59862;47.732;7.346;2023-04-03T06:49:44;98696.45;;;2.48;82.60
71996;BME280;59862;47.732;7.346;2023-04-03T06:52:12;98704.27;;;2.50;82.44
71996;BME280;59862;47.732;7.346;2023-04-03T06:54:40;98705.81;;;2.41;82.21
71996;BME280;59862;47.732;7.346;2023-04-03T06:57:08;98706.83;;;2.51;82.77
71996;BME280;59862;47.732;7.346;2023-04-03T06:59:36;98709.73;;;2.59;82.96
71996;BME280;59862;47.732;7.346;2023-04-03T07:02:04;98702.51;;;2.61;82.87
71996;BME280;59862;47.732;7.346;2023-04-03T07:04:32;98710.92;;;2.61;83.28
71996;BME280;59862;47.732;7.346;2023-04-03T07:06:59;98716.95;;;2.63;83.04
71996;BME280;59862;47.732;7.346;2023-04-03T07:09:27;98715.72;;;2.56;83.17
71996;BME280;59862;47.732;7.346;2023-04-03T07:11:54;98714.57;;;2.36;82.95
71996;BME280;59862;47.732;7.346;2023-04-03T07:14:22;98723.28;;;2.38;83.66
71996;BME280;59862;47.732;7.346;2023-04-03T07:16:49;98716.53;;;2.45;84.23
71996;BME280;59862;47.732;7.346;2023-04-03T07:19:18;98720.76;;;2.42;83.69
71996;BME280;59862;47.732;7.346;2023-04-03T07:21:45;98722.72;;;2.51;83.95
71996;BME280;59862;47.732;7.346;2023-04-03T07:24:12;98727.30;;;2.55;83.96
71996;BME280;59862;47.732;7.346;2023-04-03T07:26:40;98722.88;;;2.66;84.09
71996;BME280;59862;47.732;7.346;2023-04-03T07:29:08;98720.73;;;2.77;83.97
71996;BME280;59862;47.732;7.346;2023-04-03T07:31:35;98721.56;;;2.66;83.36
71996;BME280;59862;47.732;7.346;2023-04-03T07:34:03;98722.53;;;2.76;83.01
71996;BME280;59862;47.732;7.346;2023-04-03T07:36:31;98723.51;;;2.86;82.62
71996;BME280;59862;47.732;7.346;2023-04-03T07:38:59;98726.80;;;3.01;82.82
71996;BME280;59862;47.732;7.346;2023-04-03T07:41:27;98730.77;;;3.06;83.10
71996;BME280;59862;47.732;7.346;2023-04-03T07:43:55;98728.13;;;3.06;82.63
71996;BME280;59862;47.732;7.346;2023-04-03T07:46:23;98733.55;;;3.11;82.45
71996;BME280;59862;47.732;7.346;2023-04-03T07:48:51;98736.92;;;3.13;82.55
71996;BME280;59862;47.732;7.346;2023-04-03T07:51:18;98739.08;;;3.02;82.30
71996;BME280;59862;47.732;7.346;2023-04-03T07:53:46;98734.63;;;3.02;82.40
71996;BME280;59862;47.732;7.346;2023-04-03T07:56:14;98724.39;;;3.15;82.62
71996;BME280;59862;47.732;7.346;2023-04-03T07:58:42;98733.20;;;3.10;82.15
71996;BME280;59862;47.732;7.346;2023-04-03T08:01:10;98738.38;;;3.11;81.95
71996;BME280;59862;47.732;7.346;2023-04-03T08:03:38;98729.81;;;3.19;82.10
71996;BME280;59862;47.732;7.346;2023-04-03T08:06:07;98733.44;;;3.18;81.79
71996;BME280;59862;47.732;7.346;2023-04-03T08:08:35;98735.48;;;3.25;81.69
71996;BME280;59862;47.732;7.346;2023-04-03T08:11:03;98727.31;;;3.23;81.38
71996;BME280;59862;47.732;7.346;2023-04-03T08:13:32;98733.94;;;3.23;81.59
71996;BME280;59862;47.732;7.346;2023-04-03T08:16:12;98738.98;;;3.26;81.05
71996;BME280;59862;47.732;7.346;2023-04-03T08:18:40;98739.96;;;3.25;80.87
71996;BME280;59862;47.732;7.346;2023-04-03T08:21:10;98737.55;;;3.33;80.18
71996;BME280;59862;47.732;7.346;2023-04-03T08:23:39;98739.11;;;3.41;79.36
71996;BME280;59862;47.732;7.346;2023-04-03T08:26:12;98735.62;;;3.46;79.09
71996;BME280;59862;47.732;7.346;2023-04-03T08:28:40;98730.91;;;3.66;79.82
71996;BME280;59862;47.732;7.346;2023-04-03T08:31:11;98731.00;;;3.81;78.85
71996;BME280;59862;47.732;7.346;2023-04-03T08:33:43;98735.42;;;4.03;78.36
71996;BME280;59862;47.732;7.346;2023-04-03T08:36:25;98726.47;;;4.09;77.17
71996;BME280;59862;47.732;7.346;2023-04-03T08:38:54;98739.85;;;4.45;78.12
71996;BME280;59862;47.732;7.346;2023-04-03T08:41:41;98737.28;;;4.54;77.01
71996;BME280;59862;47.732;7.346;2023-04-03T08:44:39;98736.72;;;4.72;76.22
71996;BME280;59862;47.732;7.346;2023-04-03T08:47:15;98733.41;;;5.00;75.29
71996;BME280;59862;47.732;7.346;2023-04-03T08:49:45;98741.20;;;5.07;74.42
71996;BME280;59862;47.732;7.346;2023-04-03T08:52:20;98733.52;;;5.34;74.42
71996;BME280;59862;47.732;7.346;2023-04-03T08:54:57;98730.41;;;5.44;72.63
71996;BME280;59862;47.732;7.346;2023-04-03T08:57:29;98735.39;;;5.28;72.40
71996;BME280;59862;47.732;7.346;2023-04-03T09:00:00;98732.27;;;5.23;71.79
71996;BME280;59862;47.732;7.346;2023-04-03T09:02:35;98736.58;;;5.45;71.44
71996;BME280;59862;47.732;7.346;2023-04-03T09:05:08;98734.52;;;5.73;70.61
71996;BME280;59862;47.732;7.346;2023-04-03T09:07:38;98733.41;;;5.75;71.00
71996;BME280;59862;47.732;7.346;2023-04-03T09:10:06;98732.19;;;6.13;70.05
71996;BME280;59862;47.732;7.346;2023-04-03T09:12:37;98725.97;;;6.19;70.04
71996;BME280;59862;47.732;7.346;2023-04-03T09:15:24;98731.17;;;6.58;69.47
71996;BME280;59862;47.732;7.346;2023-04-03T09:18:16;98723.75;;;6.43;68.14
71996;BME280;59862;47.732;7.346;2023-04-03T09:20:46;98722.97;;;6.46;68.95
71996;BME280;59862;47.732;7.346;2023-04-03T09:23:32;98722.06;;;6.32;67.87
71996;BME280;59862;47.732;7.346;2023-04-03T09:26:00;98725.22;;;6.51;67.69
71996;BME280;59862;47.732;7.346;2023-04-03T09:28:26;98717.18;;;6.89;67.90
71996;BME280;59862;47.732;7.346;2023-04-03T09:30:54;98714.83;;;7.32;66.03
71996;BME280;59862;47.732;7.346;2023-04-03T09:33:22;98708.52;;;7.33;65.66
71996;BME280;59862;47.732;7.346;2023-04-03T09:35:50;98709.64;;;7.31;64.07
71996;BME280;59862;47.732;7.346;2023-04-03T09:38:22;98712.78;;;6.84;64.77
71996;BME280;59862;47.732;7.346;2023-04-03T09:41:37;98711.97;;;6.45;65.50
71996;BME280;59862;47.732;7.346;2023-04-03T09:43:34;98715.53;;;6.59;64.36
71996;BME280;59862;47.732;7.346;2023-04-03T09:49:00;98709.05;;;6.71;65.26
71996;BME280;59862;47.732;7.346;2023-04-03T09:51:29;98709.09;;;6.43;64.48
71996;BME280;59862;47.732;7.346;2023-04-03T09:53:58;98712.50;;;6.58;64.32
71996;BME280;59862;47.732;7.346;2023-04-03T09:56:28;98715.19;;;6.49;60.92
71996;BME280;59862;47.732;7.346;2023-04-03T09:59:07;98722.06;;;6.51;60.34
71996;BME280;59862;47.732;7.346;2023-04-03T10:01:37;98714.41;;;6.33;59.93
71996;BME280;59862;47.732;7.346;2023-04-03T10:04:20;98710.19;;;6.50;61.12
71996;BME280;59862;47.732;7.346;2023-04-03T10:06:56;98716.08;;;6.63;59.17
71996;BME280;59862;47.732;7.346;2023-04-03T10:09:29;98719.45;;;6.74;58.50
71996;BME280;59862;47.732;7.346;2023-04-03T10:12:05;98716.66;;;6.66;57.90
71996;BME280;59862;47.732;7.346;2023-04-03T10:14:35;98716.16;;;6.48;57.91
71996;BME280;59862;47.732;7.346;2023-04-03T10:17:26;98717.92;;;6.53;58.66
71996;BME280;59862;47.732;7.346;2023-04-03T10:31:02;98716.45;;;6.45;59.85
71996;BME280;59862;47.732;7.346;2023-04-03T10:33:55;98714.55;;;6.51;58.58
71996;BME280;59862;47.732;7.346;2023-04-03T10:37:43;98717.28;;;6.55;58.83
71996;BME280;59862;47.732;7.346;2023-04-03T10:42:33;98719.59;;;6.25;57.51
71996;BME280;59862;47.732;7.346;2023-04-03T10:45:26;98726.05;;;6.42;57.82
71996;BME280;59862;47.732;7.346;2023-04-03T10:48:11;98728.22;;;6.33;57.91
71996;BME280;59862;47.732;7.346;2023-04-03T10:53:38;98714.69;;;6.40;58.04
71996;BME280;59862;47.732;7.346;2023-04-03T10:56:25;98715.82;;;6.47;57.60
71996;BME280;59862;47.732;7.346;2023-04-03T10:58:56;98728.25;;;6.52;61.34
71996;BME280;59862;47.732;7.346;2023-04-03T11:01:27;98721.44;;;6.34;62.27
71996;BME280;59862;47.732;7.346;2023-04-03T11:03:57;98718.47;;;6.37;62.26
71996;BME280;59862;47.732;7.346;2023-04-03T11:06:31;98714.00;;;6.47;62.53
71996;BME280;59862;47.732;7.346;2023-04-03T11:09:05;98709.92;;;6.53;63.09
71996;BME280;59862;47.732;7.346;2023-04-03T11:11:36;98718.48;;;6.66;61.46
71996;BME280;59862;47.732;7.346;2023-04-03T11:14:16;98716.91;;;6.92;60.68
71996;BME280;59862;47.732;7.346;2023-04-03T11:16:48;98717.29;;;7.07;61.42
71996;BME280;59862;47.732;7.346;2023-04-03T11:19:22;98713.86;;;7.10;61.49
71996;BME280;59862;47.732;7.346;2023-04-03T11:22:16;98713.02;;;7.00;61.87
71996;BME280;59862;47.732;7.346;2023-04-03T11:24:43;98716.00;;;7.20;60.62
71996;BME280;59862;47.732;7.346;2023-04-03T11:27:17;98704.02;;;7.47;61.42
71996;BME280;59862;47.732;7.346;2023-04-03T11:29:47;98697.46;;;7.83;61.24
71996;BME280;59862;47.732;7.346;2023-04-03T11:35:06;98703.69;;;8.46;59.26
71996;BME280;59862;47.732;7.346;2023-04-03T11:37:46;98702.22;;;8.51;57.44
71996;BME280;59862;47.732;7.346;2023-04-03T11:42:53;98692.06;;;8.72;59.17
71996;BME280;59862;47.732;7.346;2023-04-03T11:45:29;98689.61;;;8.79;58.88
71996;BME280;59862;47.732;7.346;2023-04-03T11:47:57;98689.61;;;8.79;58.88
71996;BME280;59862;47.732;7.346;2023-04-03T11:55:41;98682.09;;;8.82;48.67
71996;BME280;59862;47.732;7.346;2023-04-03T11:58:14;98682.09;;;8.82;48.67
71996;BME280;59862;47.732;7.346;2023-04-03T12:03:56;98680.06;;;9.28;49.21
71996;BME280;59862;47.732;7.346;2023-04-03T12:08:47;98682.32;;;8.32;48.39
71996;BME280;59862;47.732;7.346;2023-04-03T12:11:31;98682.32;;;8.32;48.39
71996;BME280;59862;47.732;7.346;2023-04-03T12:19:30;98676.78;;;8.29;50.39
71996;BME280;59862;47.732;7.346;2023-04-03T12:24:30;98669.64;;;8.34;50.93
71996;BME280;59862;47.732;7.346;2023-04-03T12:27:05;98670.25;;;8.14;49.18
71996;BME280;59862;47.732;7.346;2023-04-03T12:32:08;98665.84;;;8.05;49.95
71996;BME280;59862;47.732;7.346;2023-04-03T12:37:51;98671.76;;;7.99;50.69
71996;BME280;59862;47.732;7.346;2023-04-03T12:48:29;98669.68;;;8.07;49.72
71996;BME280;59862;47.732;7.346;2023-04-03T12:50:58;98660.37;;;8.42;51.03
71996;BME280;59862;47.732;7.346;2023-04-03T12:53:31;98660.76;;;8.51;48.96
71996;BME280;59862;47.732;7.346;2023-04-03T12:58:48;98657.80;;;8.23;49.02
71996;BME280;59862;47.732;7.346;2023-04-03T13:01:23;98657.77;;;8.32;47.98
71996;BME280;59862;47.732;7.346;2023-04-03T13:03:49;98654.31;;;8.22;49.33
71996;BME280;59862;47.732;7.346;2023-04-03T13:06:27;98660.44;;;8.32;48.50
71996;BME280;59862;47.732;7.346;2023-04-03T13:08:58;98652.66;;;8.61;48.94
71996;BME280;59862;47.732;7.346;2023-04-03T13:11:38;98660.20;;;8.61;48.22
71996;BME280;59862;47.732;7.346;2023-04-03T13:14:15;98660.08;;;8.92;49.40
71996;BME280;59862;47.732;7.346;2023-04-03T13:16:57;98654.83;;;9.04;49.21
71996;BME280;59862;47.732;7.346;2023-04-03T13:19:27;98654.94;;;8.99;46.81
71996;BME280;59862;47.732;7.346;2023-04-03T13:22:08;98654.94;;;8.99;46.81
71996;BME280;59862;47.732;7.346;2023-04-03T13:24:35;98644.02;;;8.92;47.31
71996;BME280;59862;47.732;7.346;2023-04-03T13:27:03;98644.02;;;8.92;47.31
71996;BME280;59862;47.732;7.346;2023-04-03T13:29:34;98640.38;;;8.97;47.65
71996;BME280;59862;47.732;7.346;2023-04-03T13:32:04;98645.78;;;8.80;47.18
71996;BME280;59862;47.732;7.346;2023-04-03T13:34:41;98649.60;;;8.77;47.53
71996;BME280;59862;47.732;7.346;2023-04-03T13:37:07;98641.47;;;8.61;46.89
71996;BME280;59862;47.732;7.346;2023-04-03T13:39:38;98641.47;;;8.61;46.89
71996;BME280;59862;47.732;7.346;2023-04-03T13:42:22;98641.98;;;8.43;46.63
71996;BME280;59862;47.732;7.346;2023-04-03T13:44:47;98642.63;;;8.41;47.50
71996;BME280;59862;47.732;7.346;2023-04-03T13:47:18;98642.39;;;8.52;47.53
71996;BME280;59862;47.732;7.346;2023-04-03T13:50:00;98633.41;;;8.35;49.09
71996;BME280;59862;47.732;7.346;2023-04-03T13:52:34;98631.97;;;8.10;49.61
71996;BME280;59862;47.732;7.346;2023-04-03T13:57:56;98630.95;;;8.42;50.34
71996;BME280;59862;47.732;7.346;2023-04-03T14:00:53;98628.34;;;8.50;50.00
71996;BME280;59862;47.732;7.346;2023-04-03T14:03:00;98627.84;;;8.72;49.04
71996;BME280;59862;47.732;7.346;2023-04-03T14:05:28;98626.10;;;8.63;47.83
71996;BME280;59862;47.732;7.346;2023-04-03T14:07:55;98625.28;;;8.45;48.42
71996;BME280;59862;47.732;7.346;2023-04-03T14:10:23;98627.03;;;8.54;49.06
71996;BME280;59862;47.732;7.346;2023-04-03T14:12:50;98627.72;;;8.56;48.38
71996;BME280;59862;47.732;7.346;2023-04-03T14:15:23;98627.03;;;8.54;49.07
71996;BME280;59862;47.732;7.346;2023-04-03T14:17:52;98618.48;;;8.29;48.17
71996;BME280;59862;47.732;7.346;2023-04-03T14:20:24;98618.48;;;8.29;48.17
71996;BME280;59862;47.732;7.346;2023-04-03T14:22:53;98618.77;;;8.26;48.68
71996;BME280;59862;47.732;7.346;2023-04-03T14:25:22;98619.13;;;7.96;49.53
71996;BME280;59862;47.732;7.346;2023-04-03T14:27:53;98609.48;;;7.99;50.05
71996;BME280;59862;47.732;7.346;2023-04-03T14:32:52;98608.92;;;7.95;49.13
71996;BME280;59862;47.732;7.346;2023-04-03T14:35:20;98608.56;;;8.25;49.81
71996;BME280;59862;47.732;7.346;2023-04-03T14:37:48;98607.84;;;8.37;49.36